Time;durP1;ratioP1;P1;durP2;ratioP2;P2;SDS_P1;SDS_P2;PMS_P1;PMS_P2;Temp;Humidity;BMP_temperature;BMP_pressure;BME280_temperature;BME280_humidity;BME280_pressure;Samples;Min_cycle;Max_cycle;Signal;HPM_P1;HPM_P2
2022/08/10 00:00:53;;;;;;;3.58;1.80;;;;;;;;;;8373816;28;20233;-58
2022/08/10 00:04:53;;;;;;;1.95;1.30;;;;;;;;;;8371285;28;20461;-58
2022/08/10 00:08:53;;;;;;;2.33;1.50;;;;;;;;;;8372500;28;20643;-58
2022/08/10 00:12:54;;;;;;;1.77;1.60;;;;;;;;;;8371097;28;20316;-58
2022/08/10 00:16:54;;;;;;;3.80;1.60;;;;;;;;;;8370261;28;20635;-58
2022/08/10 00:20:54;;;;;;;2.58;1.40;;;;;;;;;;8369450;28;20032;-58
2022/08/10 00:24:56;;;;;;;2.58;1.75;;;;;;;;;;8371798;28;20094;-58
2022/08/10 00:28:56;;;;;;;1.65;1.55;;;;;;;;;;8368717;28;21727;-58
2022/08/10 00:32:57;;;;;;;3.38;1.67;;;;;;;;;;8371207;28;20037;-58
2022/08/10 00:36:58;;;;;;;3.50;1.77;;;;;;;;;;8371013;28;20055;-58
2022/08/10 00:40:58;;;;;;;2.20;1.67;;;;;;;;;;8373384;28;20020;-58
2022/08/10 00:44:58;;;;;;;2.80;1.55;;;;;;;;;;8373307;28;20130;-58
2022/08/10 00:48:59;;;;;;;1.67;1.58;;;;;;;;;;8370484;28;20036;-58
2022/08/10 00:52:59;;;;;;;2.20;1.65;;;;;;;;;;8371380;28;20024;-58
2022/08/10 00:56:59;;;;;;;4.07;1.90;;;;;;;;;;8374037;28;20439;-58
2022/08/10 01:00:59;;;;;;;2.87;1.77;;;;;;;;;;8378527;28;20441;-58
2022/08/10 01:05:02;;;;;;;1.75;1.60;;;;;;;;;;8377354;28;20297;-58
2022/08/10 01:09:12;;;;;;;2.22;1.55;;;;;;;;;;8377261;28;20077;-58
2022/08/10 01:13:16;;;;;;;2.78;1.70;;;;;;;;;;8373740;28;20035;-58
2022/08/10 01:17:25;;;;;;;1.83;1.70;;;;;;;;;;8373926;28;20028;-58
2022/08/10 01:21:44;;;;;;;2.92;1.70;;;;;;;;;;8373134;28;20028;-58
2022/08/10 01:26:03;;;;;;;2.13;1.60;;;;;;;;;;8378848;28;20032;-58
2022/08/10 01:30:05;;;;;;;1.73;1.60;;;;;;;;;;8381683;28;20024;-59
2022/08/10 01:34:08;;;;;;;3.50;2.00;;;;;;;;;;8384631;28;20052;-58
2022/08/10 01:38:19;;;;;;;4.20;1.70;;;;;;;;;;8382945;28;20025;-59
2022/08/10 01:42:20;;;;;;;2.75;1.70;;;;;;;;;;8381629;28;20039;-58
2022/08/10 01:46:22;;;;;;;4.45;1.60;;;;;;;;;;8377835;28;20032;-58
2022/08/10 01:50:30;;;;;;;3.90;1.80;;;;;;;;;;8377698;28;20032;-59
2022/08/10 01:54:30;;;;;;;3.22;1.90;;;;;;;;;;8381443;28;20040;-58
2022/08/10 01:58:32;;;;;;;2.15;1.70;;;;;;;;;;8383380;28;20200;-59
2022/08/10 02:02:33;;;;;;;5.03;1.90;;;;;;;;;;8382310;28;20032;-58
2022/08/10 02:06:42;;;;;;;2.38;1.63;;;;;;;;;;8383045;28;20021;-58
2022/08/10 02:10:44;;;;;;;2.60;1.60;;;;;;;;;;8379947;28;20067;-58
2022/08/10 02:14:46;;;;;;;2.08;1.70;;;;;;;;;;8378593;28;20202;-58
2022/08/10 02:18:47;;;;;;;3.28;1.60;;;;;;;;;;8378047;28;20044;-58
2022/08/10 02:23:08;;;;;;;1.73;1.63;;;;;;;;;;8376337;28;20104;-58
2022/08/10 02:27:08;;;;;;;4.63;1.60;;;;;;;;;;8381702;28;20055;-58
2022/08/10 02:31:11;;;;;;;6.60;1.70;;;;;;;;;;8379966;28;20040;-58
2022/08/10 02:35:12;;;;;;;2.57;1.73;;;;;;;;;;8382050;28;20070;-58
2022/08/10 02:39:15;;;;;;;4.65;2.00;;;;;;;;;;8380329;28;20063;-58
2022/08/10 02:43:26;;;;;;;1.60;1.50;;;;;;;;;;8378737;28;20047;-58
2022/08/10 02:47:44;;;;;;;1.77;1.67;;;;;;;;;;8379143;28;20051;-58
2022/08/10 02:51:48;;;;;;;4.90;1.73;;;;;;;;;;8374655;28;20025;-58
2022/08/10 02:55:49;;;;;;;1.75;1.65;;;;;;;;;;8378362;28;20375;-58
2022/08/10 02:59:51;;;;;;;3.88;2.00;;;;;;;;;;8380482;28;20036;-58
2022/08/10 03:03:59;;;;;;;3.25;1.70;;;;;;;;;;8373035;28;20076;-58
2022/08/10 03:08:02;;;;;;;6.43;1.90;;;;;;;;;;8375424;28;20541;-57
2022/08/10 03:12:04;;;;;;;2.33;1.90;;;;;;;;;;8373738;28;20024;-58
2022/08/10 03:16:05;;;;;;;2.30;2.08;;;;;;;;;;8373577;28;20135;-58
2022/08/10 03:20:06;;;;;;;3.78;1.55;;;;;;;;;;8370525;28;20032;-58
2022/08/10 03:24:07;;;;;;;2.55;1.67;;;;;;;;;;8372255;28;20020;-57
2022/08/10 03:28:07;;;;;;;3.33;1.60;;;;;;;;;;8378593;28;20028;-59
2022/08/10 03:32:08;;;;;;;3.78;1.92;;;;;;;;;;8376422;28;20032;-59
2022/08/10 03:36:08;;;;;;;3.97;1.73;;;;;;;;;;8370648;28;20043;-57
2022/08/10 03:40:08;;;;;;;3.80;1.80;;;;;;;;;;8374684;28;20028;-57
2022/08/10 03:44:09;;;;;;;4.78;2.00;;;;;;;;;;8371997;28;20262;-57
2022/08/10 03:48:11;;;;;;;4.35;2.00;;;;;;;;;;8370701;28;21222;-58
2022/08/10 03:52:11;;;;;;;3.00;1.92;;;;;;;;;;8369743;28;20953;-57
2022/08/10 03:56:12;;;;;;;4.07;2.00;;;;;;;;;;8372065;28;20493;-57
2022/08/10 04:00:22;;;;;;;3.55;1.67;;;;;;;;;;8375040;28;20035;-57
2022/08/10 04:04:23;;;;;;;4.10;1.70;;;;;;;;;;8373688;28;20037;-57
2022/08/10 04:08:23;;;;;;;2.00;1.70;;;;;;;;;;8369213;28;20027;-57
2022/08/10 04:12:23;;;;;;;3.00;1.98;;;;;;;;;;8369757;28;20035;-57
2022/08/10 04:16:24;;;;;;;3.13;1.85;;;;;;;;;;8368650;28;20037;-57
2022/08/10 04:20:34;;;;;;;3.35;1.98;;;;;;;;;;8365654;28;20079;-58
2022/08/10 04:24:35;;;;;;;4.10;2.00;;;;;;;;;;8368019;28;20582;-57
2022/08/10 04:28:36;;;;;;;1.77;1.50;;;;;;;;;;8368183;28;20025;-57
2022/08/10 04:32:36;;;;;;;4.93;1.88;;;;;;;;;;8366803;28;20072;-57
2022/08/10 04:36:37;;;;;;;1.42;1.30;;;;;;;;;;8367084;28;20044;-58
2022/08/10 04:40:37;;;;;;;3.03;1.70;;;;;;;;;;8367457;28;20037;-57
2022/08/10 04:44:37;;;;;;;6.47;1.70;;;;;;;;;;8367511;28;20050;-58
2022/08/10 04:48:38;;;;;;;1.90;1.67;;;;;;;;;;8366207;28;20290;-58
2022/08/10 04:52:38;;;;;;;2.28;1.90;;;;;;;;;;8364460;28;20372;-58
2022/08/10 04:56:38;;;;;;;2.17;1.80;;;;;;;;;;8369085;28;20036;-60
2022/08/10 05:00:39;;;;;;;6.03;1.85;;;;;;;;;;8367794;28;20136;-58
2022/08/10 05:04:39;;;;;;;2.90;1.77;;;;;;;;;;8364112;28;20028;-58
2022/08/10 05:08:39;;;;;;;1.98;1.75;;;;;;;;;;8358767;28;20020;-59
2022/08/10 05:12:39;;;;;;;1.85;1.70;;;;;;;;;;8363114;28;20069;-58
2022/08/10 05:16:40;;;;;;;3.87;2.07;;;;;;;;;;8370342;28;20028;-58
2022/08/10 05:20:40;;;;;;;3.42;1.85;;;;;;;;;;8366793;28;20421;-58
2022/08/10 05:24:40;;;;;;;2.27;1.80;;;;;;;;;;8368275;28;20473;-59
2022/08/10 05:28:40;;;;;;;6.57;1.77;;;;;;;;;;8369915;28;20278;-58
2022/08/10 05:32:41;;;;;;;3.47;1.57;;;;;;;;;;8368109;28;20055;-58
2022/08/10 05:36:41;;;;;;;5.65;2.20;;;;;;;;;;8366492;28;20159;-59
2022/08/10 05:40:42;;;;;;;2.95;1.90;;;;;;;;;;8366529;28;20536;-58
2022/08/10 05:44:43;;;;;;;3.05;1.80;;;;;;;;;;8374018;28;20063;-58
2022/08/10 05:48:43;;;;;;;2.45;1.80;;;;;;;;;;8374052;28;20037;-58
2022/08/10 05:52:44;;;;;;;2.97;1.83;;;;;;;;;;8380502;28;20101;-58
2022/08/10 05:56:45;;;;;;;3.45;2.00;;;;;;;;;;8385616;28;20305;-58
2022/08/10 06:00:46;;;;;;;8.60;1.80;;;;;;;;;;8388074;28;20708;-58
2022/08/10 06:04:48;;;;;;;3.15;2.10;;;;;;;;;;8390002;28;20058;-58
2022/08/10 06:08:49;;;;;;;5.18;2.10;;;;;;;;;;8390573;28;20029;-58
2022/08/10 06:14:59;;;;;;;5.15;2.10;;;;;;;;;;8389142;28;20021;-58
2022/08/10 06:17:10;;;;;;;2.33;2.00;;;;;;;;;;8389640;28;20055;-58
2022/08/10 06:21:12;;;;;;;4.50;2.00;;;;;;;;;;8388558;28;20763;-58
2022/08/10 06:25:12;;;;;;;4.65;2.10;;;;;;;;;;8384476;28;20085;-58
2022/08/10 06:33:50;;;;;;;6.63;2.40;;;;;;;;;;8396563;28;20039;-59
2022/08/10 06:37:50;;;;;;;4.70;2.05;;;;;;;;;;8386243;28;20024;-58
2022/08/10 06:41:52;;;;;;;2.20;2.00;;;;;;;;;;8380733;28;20017;-58
2022/08/10 06:45:54;;;;;;;2.65;1.95;;;;;;;;;;8376101;28;20089;-59
2022/08/10 06:49:57;;;;;;;4.83;2.17;;;;;;;;;;8372758;28;20024;-59
2022/08/10 06:54:00;;;;;;;4.78;2.00;;;;;;;;;;8362924;28;20054;-59
2022/08/10 06:58:02;;;;;;;2.72;2.00;;;;;;;;;;8365194;28;20078;-59
2022/08/10 07:02:04;;;;;;;4.75;2.00;;;;;;;;;;8367014;28;20115;-59
2022/08/10 07:06:05;;;;;;;2.40;2.10;;;;;;;;;;8365130;28;20024;-59
2022/08/10 07:10:05;;;;;;;4.57;1.80;;;;;;;;;;8365552;28;20671;-59
2022/08/10 07:14:07;;;;;;;3.60;2.17;;;;;;;;;;8364843;28;20050;-59
2022/08/10 07:18:08;;;;;;;5.43;2.10;;;;;;;;;;8369493;28;20521;-59
2022/08/10 07:22:09;;;;;;;5.40;1.70;;;;;;;;;;8369644;28;20013;-59
2022/08/10 07:26:10;;;;;;;2.95;1.70;;;;;;;;;;8380774;28;20445;-59
2022/08/10 07:30:10;;;;;;;4.10;1.73;;;;;;;;;;8382270;28;20032;-60
2022/08/10 07:34:13;;;;;;;3.60;1.55;;;;;;;;;;8385172;28;20024;-60
2022/08/10 07:38:20;;;;;;;3.90;1.90;;;;;;;;;;8386340;28;20078;-60
2022/08/10 07:42:22;;;;;;;2.53;1.75;;;;;;;;;;8385660;28;20088;-59
2022/08/10 07:46:23;;;;;;;2.00;1.55;;;;;;;;;;8387697;28;20037;-60
2022/08/10 07:50:24;;;;;;;1.42;1.25;;;;;;;;;;8384760;28;20020;-60
2022/08/10 07:54:26;;;;;;;3.03;1.70;;;;;;;;;;8383239;28;20024;-60
2022/08/10 07:58:28;;;;;;;3.88;1.80;;;;;;;;;;8375747;28;20036;-60
2022/08/10 08:02:34;;;;;;;7.45;1.63;;;;;;;;;;8376127;28;20068;-60
2022/08/10 08:06:35;;;;;;;3.05;1.60;;;;;;;;;;8380631;28;20013;-60
2022/08/10 08:10:37;;;;;;;4.63;1.58;;;;;;;;;;8385166;28;20031;-60
2022/08/10 08:14:38;;;;;;;3.28;1.60;;;;;;;;;;8385997;28;20040;-60
2022/08/10 08:18:38;;;;;;;;;;;;;;;;;;8383815;28;20068;-60
2022/08/10 08:22:40;;;;;;;2.45;1.50;;;;;;;;;;8380456;28;19913;-59
2022/08/10 08:26:41;;;;;;;1.50;1.40;;;;;;;;;;8381050;28;20572;-60
2022/08/10 08:30:41;;;;;;;1.98;1.40;;;;;;;;;;8378920;28;20097;-60
2022/08/10 08:34:43;;;;;;;3.60;1.30;;;;;;;;;;8380290;28;20028;-59
2022/08/10 08:38:44;;;;;;;6.95;1.40;;;;;;;;;;8371524;28;20052;-59
2022/08/10 08:43:03;;;;;;;5.53;1.55;;;;;;;;;;8367197;28;20031;-59
2022/08/10 08:47:06;;;;;;;4.47;1.40;;;;;;;;;;8365063;28;20470;-59
2022/08/10 08:51:24;;;;;;;2.83;1.35;;;;;;;;;;8361952;28;20012;-59
2022/08/10 08:55:31;;;;;;;1.38;1.23;;;;;;;;;;8368018;28;20032;-59
2022/08/10 09:00:04;;;;;;;2.60;1.42;;;;;;;;;;8367061;28;20036;-59
2022/08/10 09:04:43;;;;;;;5.78;1.40;;;;;;;;;;8339249;28;20059;-59
2022/08/10 09:09:02;;;;;;;3.15;1.40;;;;;;;;;;8296861;28;20047;-59
2022/08/10 09:13:25;;;;;;;3.67;1.48;;;;;;;;;;8333337;28;20040;-59
2022/08/10 09:17:31;;;;;;;2.50;1.80;;;;;;;;;;8365952;28;20052;-59
2022/08/10 09:21:44;;;;;;;3.88;1.40;;;;;;;;;;8366216;28;20129;-59
2022/08/10 09:25:50;;;;;;;4.40;1.40;;;;;;;;;;8373282;28;20198;-59
2022/08/10 09:29:55;;;;;;;4.28;1.50;;;;;;;;;;8373242;28;20448;-58
2022/08/10 09:33:55;;;;;;;2.35;1.50;;;;;;;;;;8371531;28;20575;-59
2022/08/10 09:37:59;;;;;;;5.07;1.50;;;;;;;;;;8372160;28;20025;-58
2022/08/10 09:42:11;;;;;;;4.78;1.67;;;;;;;;;;8368228;28;20115;-59
2022/08/10 09:46:11;;;;;;;;;;;;;;;;;;8367320;28;20516;-58
2022/08/10 09:50:12;;;;;;;2.22;1.40;;;;;;;;;;8365419;28;20085;-59
2022/08/10 09:54:12;;;;;;;4.72;1.60;;;;;;;;;;8368445;28;20499;-59
2022/08/10 09:58:12;;;;;;;6.40;1.73;;;;;;;;;;8370264;28;20873;-60
2022/08/10 10:02:31;;;;;;;2.50;1.30;;;;;;;;;;8366193;28;20037;-59
2022/08/10 10:06:31;;;;;;;4.97;1.40;;;;;;;;;;8373215;28;20024;-59
2022/08/10 10:10:37;;;;;;;5.50;1.60;;;;;;;;;;8370274;28;20036;-59
2022/08/10 10:19:24;;;;;;;3.90;1.40;;;;;;;;;;8331408;28;20044;-59
2022/08/10 10:23:30;;;;;;;1.40;1.30;;;;;;;;;;8331409;28;20071;-59
2022/08/10 10:27:49;;;;;;;2.80;1.30;;;;;;;;;;8339774;28;20025;-59
2022/08/10 10:32:08;;;;;;;4.22;1.50;;;;;;;;;;8336759;28;20061;-59
2022/08/10 10:36:09;;;;;;;6.68;1.33;;;;;;;;;;8332522;28;20414;-59
2022/08/10 10:40:11;;;;;;;11.90;1.83;;;;;;;;;;8338638;28;20116;-59
2022/08/10 10:44:19;;;;;;;3.90;1.52;;;;;;;;;;8343866;28;20662;-59
2022/08/10 10:48:22;;;;;;;2.58;1.23;;;;;;;;;;8348646;28;20128;-60
2022/08/10 10:52:27;;;;;;;3.50;1.48;;;;;;;;;;8349342;28;20033;-60
2022/08/10 10:56:46;;;;;;;8.23;1.70;;;;;;;;;;8346689;28;20043;-60
2022/08/10 11:00:52;;;;;;;11.43;1.40;;;;;;;;;;8340647;28;20044;-60
2022/08/10 11:05:12;;;;;;;7.65;1.30;;;;;;;;;;8345373;28;20095;-59
2022/08/10 11:09:19;;;;;;;6.75;1.35;;;;;;;;;;8344952;28;20021;-59
2022/08/10 11:13:38;;;;;;;2.25;1.40;;;;;;;;;;8340952;28;20021;-60
2022/08/10 11:17:47;;;;;;;2.50;1.30;;;;;;;;;;8340754;28;20036;-60
2022/08/10 11:21:56;;;;;;;5.40;1.60;;;;;;;;;;8340070;28;20621;-60
2022/08/10 11:25:59;;;;;;;3.47;1.50;;;;;;;;;;8335223;28;20313;-60
2022/08/10 11:30:02;;;;;;;1.88;1.10;;;;;;;;;;8334656;28;20029;-60
2022/08/10 11:34:05;;;;;;;5.45;1.40;;;;;;;;;;8333352;28;20685;-60
2022/08/10 11:38:09;;;;;;;2.13;1.30;;;;;;;;;;8334782;28;20115;-60
2022/08/10 11:42:15;;;;;;;2.40;1.20;;;;;;;;;;8333036;28;20032;-62
2022/08/10 11:46:20;;;;;;;3.42;1.20;;;;;;;;;;8336103;28;20086;-60
2022/08/10 11:50:26;;;;;;;1.50;1.40;;;;;;;;;;8335618;28;20020;-60
2022/08/10 11:54:36;;;;;;;3.50;1.33;;;;;;;;;;8336744;28;20507;-60
2022/08/10 12:03:00;;;;;;;4.10;1.35;;;;;;;;;;8337602;28;20044;-60
2022/08/10 12:07:04;;;;;;;3.70;1.40;;;;;;;;;;8334186;28;20021;-60
2022/08/10 12:11:05;;;;;;;3.67;1.48;;;;;;;;;;8329184;28;20032;-61
2022/08/10 12:15:07;;;;;;;2.87;1.50;;;;;;;;;;8326578;28;20045;-60
2022/08/10 12:19:19;;;;;;;2.97;1.50;;;;;;;;;;8334766;28;20469;-59
2022/08/10 12:23:20;;;;;;;;;;;;;;;;;;8345295;28;20051;-60
2022/08/10 12:27:22;;;;;;;2.17;1.40;;;;;;;;;;8343565;28;19916;-60
2022/08/10 12:31:28;;;;;;;1.80;1.13;;;;;;;;;;8335805;28;20029;-59
2022/08/10 12:35:35;;;;;;;4.15;1.30;;;;;;;;;;8338109;28;20025;-59
2022/08/10 12:39:56;;;;;;;5.35;1.30;;;;;;;;;;8338250;28;20275;-59
2022/08/10 12:43:59;;;;;;;2.25;1.30;;;;;;;;;;8328059;28;20033;-60
2022/08/10 12:48:03;;;;;;;2.28;1.30;;;;;;;;;;8338215;28;20469;-60
2022/08/10 12:52:10;;;;;;;4.63;1.30;;;;;;;;;;8341928;28;20147;-60
2022/08/10 12:56:18;;;;;;;4.28;1.20;;;;;;;;;;8342553;28;20027;-60
2022/08/10 13:00:18;;;;;;;3.28;1.30;;;;;;;;;;8338618;28;20441;-60
2022/08/10 13:04:24;;;;;;;10.37;1.80;;;;;;;;;;8340876;28;20024;-59
2022/08/10 13:12:45;;;;;;;3.45;1.30;;;;;;;;;;8339147;28;20152;-59
2022/08/10 13:16:46;;;;;;;4.15;1.50;;;;;;;;;;8338866;28;20110;-59
2022/08/10 13:20:50;;;;;;;3.25;1.50;;;;;;;;;;8336410;28;20024;-60
2022/08/10 13:24:51;;;;;;;2.33;1.50;;;;;;;;;;8341071;28;20457;-59
2022/08/10 13:28:52;;;;;;;4.07;1.50;;;;;;;;;;8336990;28;20025;-59
2022/08/10 13:32:53;;;;;;;1.65;1.30;;;;;;;;;;8332822;28;20148;-59
2022/08/10 13:36:55;;;;;;;2.33;1.20;;;;;;;;;;8345726;28;20564;-58
2022/08/10 13:40:56;;;;;;;2.15;1.50;;;;;;;;;;8330388;28;20869;-59
2022/08/10 13:44:57;;;;;;;2.80;1.25;;;;;;;;;;8330408;28;20680;-60
2022/08/10 13:48:58;;;;;;;1.45;1.30;;;;;;;;;;8331771;28;20116;-59
2022/08/10 13:52:58;;;;;;;2.20;1.20;;;;;;;;;;8333278;28;20488;-59
2022/08/10 13:56:59;;;;;;;1.50;1.40;;;;;;;;;;8335362;28;20025;-59
2022/08/10 14:01:00;;;;;;;3.75;1.30;;;;;;;;;;8331931;28;20045;-59
2022/08/10 14:05:01;;;;;;;2.67;1.40;;;;;;;;;;8330419;28;20025;-59
2022/08/10 14:09:04;;;;;;;1.73;1.20;;;;;;;;;;8332269;28;20307;-59
2022/08/10 14:13:06;;;;;;;3.35;1.20;;;;;;;;;;8330734;28;20096;-59
2022/08/10 14:17:07;;;;;;;2.25;1.42;;;;;;;;;;8332675;28;20888;-59
2022/08/10 14:21:08;;;;;;;5.68;1.40;;;;;;;;;;8331949;28;20136;-59
2022/08/10 14:25:12;;;;;;;2.13;1.27;;;;;;;;;;8336221;28;20051;-59
2022/08/10 14:29:13;;;;;;;3.25;1.63;;;;;;;;;;8339636;28;20079;-60
2022/08/10 14:33:15;;;;;;;6.18;1.40;;;;;;;;;;8332933;28;20131;-59
2022/08/10 14:37:16;;;;;;;1.98;1.20;;;;;;;;;;8330681;28;20310;-59
2022/08/10 14:41:20;;;;;;;4.50;1.42;;;;;;;;;;8328485;28;20417;-59
2022/08/10 14:45:26;;;;;;;3.15;1.30;;;;;;;;;;8327668;28;20539;-60
2022/08/10 14:49:27;;;;;;;6.78;1.40;;;;;;;;;;8329143;28;20067;-59
2022/08/10 14:53:30;;;;;;;1.63;1.33;;;;;;;;;;8328967;28;20054;-59
2022/08/10 14:57:31;;;;;;;2.83;1.50;;;;;;;;;;8327878;28;20031;-59
2022/08/10 15:01:32;;;;;;;5.13;1.40;;;;;;;;;;8328175;28;20598;-59
2022/08/10 15:05:32;;;;;;;2.55;1.35;;;;;;;;;;8340048;28;20033;-58
2022/08/10 15:09:39;;;;;;;3.38;1.40;;;;;;;;;;8337174;28;20071;-59
2022/08/10 15:13:47;;;;;;;3.60;1.30;;;;;;;;;;8332986;28;20072;-59
2022/08/10 15:17:51;;;;;;;3.63;1.25;;;;;;;;;;8338155;28;20037;-58
2022/08/10 15:21:52;;;;;;;3.72;1.13;;;;;;;;;;8335109;28;20070;-58
2022/08/10 15:25:53;;;;;;;2.90;1.33;;;;;;;;;;8335136;28;20032;-58
2022/08/10 15:29:54;;;;;;;5.78;1.42;;;;;;;;;;8335937;28;20024;-58
2022/08/10 15:38:16;;;;;;;1.50;1.40;;;;;;;;;;8334090;28;20043;-58
2022/08/10 15:42:16;;;;;;;2.15;1.30;;;;;;;;;;8330911;28;20028;-58
2022/08/10 15:46:26;;;;;;;4.60;1.50;;;;;;;;;;8333418;28;20311;-58
2022/08/10 15:50:31;;;;;;;3.38;1.40;;;;;;;;;;8328935;28;20037;-58
2022/08/10 15:54:36;;;;;;;3.50;1.58;;;;;;;;;;8328336;28;20029;-58
2022/08/10 15:58:37;;;;;;;2.28;1.58;;;;;;;;;;8329841;28;20025;-58
2022/08/10 16:02:51;;;;;;;3.78;1.60;;;;;;;;;;8322771;28;20513;-58
2022/08/10 16:06:57;;;;;;;3.63;1.30;;;;;;;;;;8326258;28;20029;-57
2022/08/10 16:11:01;;;;;;;7.32;1.55;;;;;;;;;;8325935;28;20025;-58
2022/08/10 16:15:06;;;;;;;2.92;1.40;;;;;;;;;;8327281;28;20036;-58
2022/08/10 16:19:06;;;;;;;2.13;1.40;;;;;;;;;;8324466;28;20045;-58
2022/08/10 16:23:09;;;;;;;5.93;1.38;;;;;;;;;;8326294;28;20511;-57
2022/08/10 16:27:09;;;;;;;2.35;1.30;;;;;;;;;;8325030;28;20608;-57
2022/08/10 16:31:15;;;;;;;5.53;1.42;;;;;;;;;;8325062;28;20082;-57
2022/08/10 16:35:16;;;;;;;1.88;1.20;;;;;;;;;;8326657;28;20564;-57
2022/08/10 16:39:18;;;;;;;2.50;1.40;;;;;;;;;;8328521;28;20055;-57
2022/08/10 16:43:19;;;;;;;1.95;1.30;;;;;;;;;;8326894;28;20028;-57
2022/08/10 16:47:21;;;;;;;2.30;1.50;;;;;;;;;;8322745;28;20041;-57
2022/08/10 16:51:22;;;;;;;1.67;1.40;;;;;;;;;;8325402;28;20547;-57
2022/08/10 16:55:23;;;;;;;3.67;1.50;;;;;;;;;;8327695;28;20565;-58
2022/08/10 16:59:27;;;;;;;8.02;1.60;;;;;;;;;;8325777;28;20021;-57
2022/08/10 17:03:29;;;;;;;2.30;1.40;;;;;;;;;;8352410;28;20052;-58
2022/08/10 17:07:30;;;;;;;3.90;1.38;;;;;;;;;;8359495;28;20023;-57
2022/08/10 17:11:36;;;;;;;3.20;1.35;;;;;;;;;;8359665;28;20042;-57
2022/08/10 17:15:42;;;;;;;3.50;1.50;;;;;;;;;;8359622;28;20528;-57
2022/08/10 17:19:43;;;;;;;3.05;1.33;;;;;;;;;;8360956;28;20108;-57
2022/08/10 17:23:45;;;;;;;1.33;1.20;;;;;;;;;;8362633;28;20028;-57
2022/08/10 17:27:46;;;;;;;2.50;1.38;;;;;;;;;;8362734;28;20430;-58
2022/08/10 17:31:47;;;;;;;3.40;1.50;;;;;;;;;;8362330;28;20584;-57
2022/08/10 17:35:49;;;;;;;3.63;1.40;;;;;;;;;;8363621;28;20040;-57
2022/08/10 17:39:56;;;;;;;2.10;1.58;;;;;;;;;;8372078;28;20025;-57
2022/08/10 17:44:00;;;;;;;1.67;1.15;;;;;;;;;;8373611;28;21462;-57
2022/08/10 17:48:05;;;;;;;4.22;1.40;;;;;;;;;;8372945;28;20088;-58
2022/08/10 17:52:07;;;;;;;3.30;1.20;;;;;;;;;;8368022;28;20040;-58
2022/08/10 17:56:09;;;;;;;2.85;1.50;;;;;;;;;;8369428;28;20131;-57
2022/08/10 18:00:13;;;;;;;1.50;1.40;;;;;;;;;;8370854;28;20543;-57
2022/08/10 18:04:16;;;;;;;2.22;1.27;;;;;;;;;;8373330;28;20615;-57
2022/08/10 18:08:17;;;;;;;1.67;1.33;;;;;;;;;;8377388;28;20415;-57
2022/08/10 18:12:26;;;;;;;1.17;1.05;;;;;;;;;;8375227;28;20241;-57
2022/08/10 18:16:28;;;;;;;1.80;1.40;;;;;;;;;;8376535;28;20056;-57
2022/08/10 18:20:34;;;;;;;3.35;1.40;;;;;;;;;;8376076;28;20086;-57
2022/08/10 18:24:35;;;;;;;1.50;1.20;;;;;;;;;;8375119;28;20040;-57
2022/08/10 18:28:37;;;;;;;4.57;1.40;;;;;;;;;;8373305;28;20102;-57
2022/08/10 18:32:37;;;;;;;2.65;1.30;;;;;;;;;;8375138;28;20056;-58
2022/08/10 18:36:39;;;;;;;2.15;1.30;;;;;;;;;;8374038;28;20455;-57
2022/08/10 18:40:42;;;;;;;3.08;1.40;;;;;;;;;;8373673;28;20033;-57
2022/08/10 18:44:43;;;;;;;1.80;1.33;;;;;;;;;;8373314;28;20166;-57
2022/08/10 18:48:56;;;;;;;5.80;1.20;;;;;;;;;;8371812;28;20032;-57
2022/08/10 18:52:59;;;;;;;1.92;1.40;;;;;;;;;;8374745;28;20033;-57
2022/08/10 18:57:05;;;;;;;1.38;1.27;;;;;;;;;;8374099;28;20388;-58
2022/08/10 19:01:16;;;;;;;2.35;1.33;;;;;;;;;;8373354;28;20113;-57
2022/08/10 19:05:20;;;;;;;3.67;1.30;;;;;;;;;;8373462;28;20439;-57
2022/08/10 19:09:20;;;;;;;1.17;1.10;;;;;;;;;;8371600;28;20024;-57
2022/08/10 19:13:40;;;;;;;1.40;1.30;;;;;;;;;;8367962;28;20627;-57
2022/08/10 19:17:51;;;;;;;2.00;1.20;;;;;;;;;;8371028;28;20040;-56
2022/08/10 19:22:01;;;;;;;2.20;1.50;;;;;;;;;;8368385;28;20032;-57
2022/08/10 19:26:14;;;;;;;4.93;1.40;;;;;;;;;;8368810;28;20099;-57
2022/08/10 19:30:15;;;;;;;7.03;1.30;;;;;;;;;;8368641;28;20035;-57
2022/08/10 19:34:34;;;;;;;2.08;1.50;;;;;;;;;;8367567;28;20086;-57
2022/08/10 19:38:47;;;;;;;2.78;1.23;;;;;;;;;;8368632;28;20028;-57
2022/08/10 19:42:50;;;;;;;2.90;1.42;;;;;;;;;;8363553;28;20131;-57
2022/08/10 19:46:54;;;;;;;2.15;1.20;;;;;;;;;;8365568;28;20041;-57
2022/08/10 19:51:08;;;;;;;1.48;1.38;;;;;;;;;;8353320;28;20138;-56
2022/08/10 19:55:11;;;;;;;1.65;1.55;;;;;;;;;;8363362;28;20024;-57
2022/08/10 19:59:11;;;;;;;;;;;;;;;;;;8366582;28;20032;-57
2022/08/10 20:03:14;;;;;;;1.50;1.40;;;;;;;;;;8362226;28;20307;-57
2022/08/10 20:07:17;;;;;;;3.17;1.50;;;;;;;;;;8364403;28;20112;-57
2022/08/10 20:11:33;;;;;;;3.13;1.63;;;;;;;;;;8364840;28;20024;-57
2022/08/10 20:15:57;;;;;;;3.33;1.50;;;;;;;;;;8365262;28;20059;-57
2022/08/10 20:20:07;;;;;;;2.58;1.42;;;;;;;;;;8359620;28;20081;-57
2022/08/10 20:24:10;;;;;;;4.15;1.45;;;;;;;;;;8366947;28;20605;-56
2022/08/10 20:28:23;;;;;;;7.97;1.65;;;;;;;;;;8365960;28;20032;-57
2022/08/10 20:32:25;;;;;;;1.50;1.40;;;;;;;;;;8364372;28;20036;-57
2022/08/10 20:36:28;;;;;;;3.67;1.75;;;;;;;;;;8363187;28;20039;-57
2022/08/10 20:40:33;;;;;;;3.38;1.50;;;;;;;;;;8363073;28;20024;-57
2022/08/10 20:44:57;;;;;;;3.05;1.40;;;;;;;;;;8363541;28;20040;-57
2022/08/10 20:49:08;;;;;;;1.98;1.42;;;;;;;;;;8366040;28;20106;-57
2022/08/10 20:53:10;;;;;;;2.15;1.60;;;;;;;;;;8366501;28;20101;-57
2022/08/10 20:57:20;;;;;;;2.60;1.42;;;;;;;;;;8364327;28;20028;-59
2022/08/10 21:01:26;;;;;;;3.70;1.63;;;;;;;;;;8364966;28;20109;-57
2022/08/10 21:05:45;;;;;;;2.80;1.75;;;;;;;;;;8364525;28;20741;-57
2022/08/10 21:09:57;;;;;;;4.88;1.58;;;;;;;;;;8367472;28;20024;-57
2022/08/10 21:14:06;;;;;;;4.25;1.60;;;;;;;;;;8370144;28;20032;-56
2022/08/10 21:18:15;;;;;;;1.55;1.45;;;;;;;;;;8372140;28;20234;-56
2022/08/10 21:22:17;;;;;;;3.17;1.73;;;;;;;;;;8371701;28;20028;-57
2022/08/10 23:02:30;;;;;;;;;;;;;;;;;;8367964;28;20082;-57
2022/08/10 23:06:30;;;;;;;5.53;1.80;;;;;;;;;;8361777;28;19913;-57
2022/08/10 23:10:35;;;;;;;1.83;1.60;;;;;;;;;;8363001;28;20028;-57
2022/08/10 23:23:02;;;;;;;2.22;1.90;;;;;;;;;;8367976;28;20094;-57
2022/08/10 23:27:03;;;;;;;3.03;1.85;;;;;;;;;;8364936;28;20133;-57
2022/08/10 23:31:07;;;;;;;2.50;2.00;;;;;;;;;;8363666;28;20252;-57
2022/08/10 23:35:10;;;;;;;3.75;1.95;;;;;;;;;;8364890;28;20665;-57
2022/08/10 23:39:12;;;;;;;2.05;1.85;;;;;;;;;;8363369;28;20029;-57
2022/08/10 23:43:22;;;;;;;5.45;2.13;;;;;;;;;;8365540;28;20032;-57
2022/08/10 23:47:24;;;;;;;6.40;2.00;;;;;;;;;;8366152;28;20090;-57
2022/08/10 23:51:40;;;;;;;2.35;1.88;;;;;;;;;;8363663;28;20017;-56
2022/08/10 23:55:41;;;;;;;1.90;1.70;;;;;;;;;;8365947;28;20034;-57
2022/08/10 23:59:41;;;;;;;4.07;1.92;;;;;;;;;;8366994;28;20051;-57
